Time;durP1;ratioP1;P1;durP2;ratioP2;P2;SDS_P1;SDS_P2;PMS_P1;PMS_P2;Temp;Humidity;BMP_temperature;BMP_pressure;BME280_temperature;BME280_humidity;BME280_pressure;Samples;Min_cycle;Max_cycle;Signal;HPM_P1;HPM_P2
2022/12/08 00:01:06;;;;;;;17.42;5.90;;;;;;;-1.24;74.66;100257.38;6122334;23;20026;-72
2022/12/08 00:03:33;;;;;;;16.27;5.82;;;;;;;-0.99;73.96;100260.19;6121817;23;20041;-72
2022/12/08 00:11:33;;;;;;;17.90;6.60;;;;;;;-1.04;73.55;100254.34;6122618;23;20025;-72
2022/12/08 00:14:00;;;;;;;14.75;5.88;;;;;;;-0.93;73.21;100262.41;6121523;23;20022;-72
2022/12/08 00:16:27;;;;;;;21.70;6.88;;;;;;;-0.93;73.22;100256.28;6122454;23;20054;-73
2022/12/08 00:18:53;;;;;;;21.27;6.60;;;;;;;-1.23;74.14;100259.06;6122924;23;20033;-72
2022/12/08 00:21:20;;;;;;;13.48;6.85;;;;;;;-1.05;74.08;100259.72;6120229;23;20355;-69
2022/12/08 00:23:46;;;;;;;16.33;6.40;;;;;;;-1.06;74.13;100252.75;6122544;23;20036;-73
2022/12/08 00:26:13;;;;;;;15.05;6.90;;;;;;;-1.06;73.83;100255.38;6123168;23;20028;-72
2022/12/08 00:28:39;;;;;;;19.38;7.45;;;;;;;-1.11;74.25;100250.41;6122913;23;20022;-72
2022/12/08 00:31:08;;;;;;;20.65;7.38;;;;;;;-1.02;73.65;100249.84;6122906;23;20098;-71
2022/12/08 00:33:35;;;;;;;18.10;7.75;;;;;;;-1.07;74.01;100254.53;6122641;23;20018;-70
2022/12/08 00:36:09;;;;;;;16.80;6.97;;;;;;;-1.14;74.10;100245.34;6122241;23;20025;-72
2022/12/08 00:38:36;;;;;;;19.50;8.18;;;;;;;-1.14;73.99;100250.59;6110896;23;20029;-73
2022/12/08 00:41:06;;;;;;;20.98;8.15;;;;;;;-1.03;73.83;100247.28;6122518;23;20025;-72
2022/12/08 00:43:32;;;;;;;18.33;8.07;;;;;;;-1.11;74.32;100245.13;6122820;23;20355;-72
2022/12/08 00:45:59;;;;;;;27.38;8.43;;;;;;;-1.19;74.38;100236.91;6122824;23;20481;-73
2022/12/08 00:48:25;;;;;;;19.42;8.75;;;;;;;-1.02;74.70;100235.81;6096837;23;20406;-72
2022/12/08 00:50:52;;;;;;;24.02;9.70;;;;;;;-0.90;74.08;100240.28;6119101;23;20038;-71
2022/12/08 00:53:18;;;;;;;19.63;9.15;;;;;;;-1.11;74.02;100231.97;6122129;23;20021;-72
2022/12/08 00:55:45;;;;;;;20.73;8.35;;;;;;;-0.69;73.46;100227.53;6123472;23;20355;-72
2022/12/08 00:58:11;;;;;;;16.90;8.27;;;;;;;-0.83;73.34;100230.22;6123066;23;20026;-72
2022/12/08 01:00:42;;;;;;;17.08;8.55;;;;;;;-0.93;73.64;100228.16;6122465;23;20473;-71
2022/12/08 01:03:09;;;;;;;16.70;8.55;;;;;;;-0.93;73.67;100225.53;6121055;23;20398;-71
2022/12/08 01:05:36;;;;;;;17.67;8.38;;;;;;;-0.94;73.91;100230.91;6121467;23;20026;-72
2022/12/08 01:08:07;;;;;;;18.08;8.70;;;;;;;-1.16;74.73;100228.78;6123415;23;20029;-72
2022/12/08 01:10:35;;;;;;;22.88;7.57;;;;;;;-1.00;74.00;100234.75;6119871;23;20022;-72
2022/12/08 01:13:02;;;;;;;20.60;8.80;;;;;;;-1.16;74.39;100237.53;6121116;23;20336;-71
2022/12/08 01:15:29;;;;;;;25.40;9.07;;;;;;;-1.36;75.07;100227.41;6122976;23;20482;-72
2022/12/08 01:17:55;;;;;;;18.40;8.52;;;;;;;-1.36;75.63;100237.09;6123549;23;20041;-71
2022/12/08 01:20:22;;;;;;;21.75;8.27;;;;;;;-1.26;75.29;100230.31;6122512;23;20486;-72
2022/12/08 01:22:48;;;;;;;18.08;7.80;;;;;;;-1.07;74.54;100219.47;6122099;23;20025;-72
2022/12/08 01:25:15;;;;;;;19.92;8.77;;;;;;;-1.01;74.33;100225.19;6123435;23;20053;-72
2022/12/08 01:27:41;;;;;;;14.30;8.23;;;;;;;-1.07;74.66;100216.84;6122901;23;20371;-72
2022/12/08 01:30:08;;;;;;;20.35;8.93;;;;;;;-1.09;75.00;100222.22;6122686;23;20027;-72
2022/12/08 01:32:35;;;;;;;18.45;9.10;;;;;;;-1.07;74.79;100220.31;6122896;23;20024;-71
2022/12/08 01:35:02;;;;;;;18.75;9.50;;;;;;;-0.76;74.41;100216.53;6122696;23;20025;-72
2022/12/08 01:37:28;;;;;;;20.50;10.32;;;;;;;-0.97;74.49;100210.03;6122048;23;20026;-72
2022/12/08 01:39:55;;;;;;;24.38;9.57;;;;;;;-1.02;75.27;100218.25;6122902;23;20033;-71
2022/12/08 01:42:22;;;;;;;18.40;9.52;;;;;;;-1.22;75.80;100210.75;6093405;23;20498;-72
2022/12/08 01:44:53;;;;;;;24.00;10.07;;;;;;;-0.96;75.16;100196.75;6094458;23;20133;-72
2022/12/08 01:47:21;;;;;;;28.80;10.05;;;;;;;-0.99;74.71;100193.47;6096295;23;20026;-72
2022/12/08 01:49:48;;;;;;;21.73;9.80;;;;;;;-1.07;75.27;100191.34;6097116;23;20425;-72
2022/12/08 01:52:27;;;;;;;24.88;10.55;;;;;;;-1.17;75.77;100191.09;6096513;23;20022;-72
2022/12/08 01:55:14;;;;;;;21.70;8.63;;;;;;;-1.18;75.93;100191.19;6124726;23;20018;-72
2022/12/08 01:57:45;;;;;;;21.98;10.57;;;;;;;-1.20;76.22;100187.81;6125557;23;20023;-72
2022/12/08 02:00:15;;;;;;;22.92;9.95;;;;;;;-1.36;76.62;100184.47;6088567;23;20022;-72
2022/12/08 02:02:53;;;;;;;25.17;10.32;;;;;;;-1.13;76.43;100181.22;6122891;23;20052;-72
2022/12/08 02:09:46;;;;;;;20.85;10.95;;;;;;;-1.17;76.28;100171.81;6124288;23;20021;-72
2022/12/08 02:12:14;;;;;;;23.60;11.75;;;;;;;-1.29;76.90;100167.34;6122769;23;20021;-72
2022/12/08 02:14:40;;;;;;;19.85;10.50;;;;;;;-1.36;77.04;100163.44;6125222;23;20355;-72
2022/12/08 02:17:46;;;;;;;19.40;11.05;;;;;;;-1.34;76.79;100166.78;6125143;23;20473;-72
2022/12/08 02:20:36;;;;;;;18.10;10.23;;;;;;;-1.55;77.87;100169.84;6124819;23;20017;-72
2022/12/08 02:23:40;;;;;;;22.10;10.82;;;;;;;-1.56;78.39;100172.56;6115352;23;20024;-71
2022/12/08 02:26:43;;;;;;;21.90;10.80;;;;;;;-1.64;78.31;100163.38;6094820;23;20025;-71
2022/12/08 02:29:19;;;;;;;18.73;10.32;;;;;;;-1.60;78.91;100156.13;6096244;23;20021;-72
2022/12/08 02:32:33;;;;;;;22.95;11.13;;;;;;;-1.57;78.95;100155.94;6096516;23;20022;-70
2022/12/08 02:35:13;;;;;;;24.23;11.02;;;;;;;-1.39;78.03;100152.16;6124200;23;20053;-71
2022/12/08 02:37:42;;;;;;;23.60;11.50;;;;;;;-1.44;78.50;100151.59;6125690;23;20021;-70
2022/12/08 02:40:20;;;;;;;20.05;10.20;;;;;;;-1.39;78.30;100152.16;6125868;23;20026;-70
2022/12/08 02:43:01;;;;;;;16.67;9.82;;;;;;;-1.22;78.39;100147.59;6125096;23;20068;-72
2022/12/08 02:45:37;;;;;;;26.13;10.52;;;;;;;-1.26;77.91;100138.22;6124620;23;20030;-71
2022/12/08 02:48:04;;;;;;;19.23;9.90;;;;;;;-1.32;77.95;100142.06;6125530;23;20022;-72
2022/12/08 02:50:31;;;;;;;17.63;9.82;;;;;;;-1.54;78.54;100134.72;6125603;23;20022;-69
2022/12/08 02:52:57;;;;;;;17.98;9.30;;;;;;;-1.14;78.13;100130.34;6124519;23;20028;-69
2022/12/08 02:55:29;;;;;;;17.98;8.93;;;;;;;-1.35;78.54;100129.13;6126447;23;20099;-71
2022/12/08 02:58:34;;;;;;;16.38;9.27;;;;;;;-1.48;79.16;100118.53;6122513;23;20029;-70
2022/12/08 03:01:27;;;;;;;15.95;8.48;;;;;;;-1.42;78.43;100122.56;6122986;23;20021;-71
2022/12/08 03:04:21;;;;;;;16.20;8.75;;;;;;;-1.40;78.75;100111.00;6120841;23;20026;-72
2022/12/08 03:06:57;;;;;;;22.83;9.02;;;;;;;-1.44;79.31;100109.50;6116096;23;20173;-71
2022/12/08 03:09:49;;;;;;;17.73;8.65;;;;;;;-1.42;78.25;100098.88;6124395;23;20018;-72
2022/12/08 03:12:31;;;;;;;18.52;8.15;;;;;;;-1.45;78.75;100101.69;6123694;23;20022;-72
2022/12/08 03:15:05;;;;;;;17.63;8.50;;;;;;;-1.46;78.73;100103.50;6123455;23;20017;-68
2022/12/08 03:17:32;;;;;;;15.57;7.82;;;;;;;-1.36;78.91;100100.28;6123350;23;20119;-72
2022/12/08 03:20:06;;;;;;;14.52;7.45;;;;;;;-1.44;79.04;100101.63;6122779;23;20096;-72
2022/12/08 03:22:33;;;;;;;14.65;8.38;;;;;;;-1.41;78.41;100098.75;6123416;23;20017;-72
2022/12/08 03:25:00;;;;;;;17.80;8.25;;;;;;;-1.46;79.16;100098.22;6123478;23;20021;-70
2022/12/08 03:27:30;;;;;;;16.65;8.43;;;;;;;-1.52;78.81;100097.78;6123787;23;20024;-72
2022/12/08 03:29:59;;;;;;;15.15;8.23;;;;;;;-1.66;79.73;100090.75;6122194;23;20020;-71
2022/12/08 03:32:28;;;;;;;14.05;8.60;;;;;;;-1.59;79.16;100092.06;6120414;23;20092;-71
2022/12/08 03:34:59;;;;;;;14.77;8.65;;;;;;;-1.37;78.65;100091.50;6115205;23;20029;-71
2022/12/08 03:37:27;;;;;;;15.63;9.17;;;;;;;-1.48;79.11;100086.94;6122132;23;20443;-71
2022/12/08 03:39:54;;;;;;;17.50;9.30;;;;;;;-1.54;79.18;100084.72;6123201;23;20093;-72
2022/12/08 03:42:21;;;;;;;18.38;11.07;;;;;;;-1.38;78.59;100084.56;6122913;23;20022;-71
2022/12/08 03:44:47;;;;;;;24.23;10.80;;;;;;;-1.49;78.75;100077.38;6122657;23;20025;-70
2022/12/08 03:47:13;;;;;;;23.10;11.60;;;;;;;-1.42;78.67;100075.19;6123076;23;20021;-71
2022/12/08 03:49:40;;;;;;;24.63;11.98;;;;;;;-1.56;79.10;100070.81;6122650;23;20022;-72
2022/12/08 03:52:06;;;;;;;24.10;12.27;;;;;;;-1.57;79.28;100065.69;6122428;23;20017;-70
2022/12/08 03:54:33;;;;;;;27.15;14.00;;;;;;;-1.55;79.27;100071.66;6123071;23;20112;-72
2022/12/08 03:56:59;;;;;;;23.95;12.55;;;;;;;-1.43;79.24;100063.00;6122856;23;20022;-71
2022/12/08 03:59:26;;;;;;;25.60;14.55;;;;;;;-1.46;79.02;100061.41;6123073;23;20041;-72
2022/12/08 04:01:52;;;;;;;30.75;15.75;;;;;;;-1.42;79.15;100055.00;6123618;23;20032;-72
2022/12/08 04:04:19;;;;;;;29.70;15.00;;;;;;;-1.42;78.68;100060.25;6122775;23;20952;-72
2022/12/08 04:06:46;;;;;;;28.63;14.98;;;;;;;-1.52;79.24;100056.53;6122799;23;20022;-71
2022/12/08 04:09:13;;;;;;;31.45;17.30;;;;;;;-1.48;79.59;100044.84;6122239;23;20053;-71
2022/12/08 04:11:40;;;;;;;32.53;16.95;;;;;;;-1.55;78.96;100040.09;6123251;23;20022;-71
2022/12/08 04:14:06;;;;;;;33.28;17.20;;;;;;;-1.44;79.45;100042.88;6120998;23;20022;-71
2022/12/08 04:16:33;;;;;;;32.25;15.88;;;;;;;-1.42;79.42;100036.56;6123357;23;20351;-71
2022/12/08 04:18:59;;;;;;;31.20;16.67;;;;;;;-1.35;79.30;100033.53;6122888;23;20362;-71
2022/12/08 04:21:26;;;;;;;30.48;17.10;;;;;;;-1.41;78.93;100035.63;6090977;23;20354;-71
2022/12/08 04:23:53;;;;;;;33.92;17.63;;;;;;;-1.20;78.62;100029.88;6121654;23;20342;-72
2022/12/08 04:26:27;;;;;;;31.25;17.27;;;;;;;-1.39;78.86;100027.66;6092533;23;20022;-72
2022/12/08 04:28:53;;;;;;;37.47;17.50;;;;;;;-1.15;78.31;100030.44;6093440;23;20026;-72
2022/12/08 04:31:20;;;;;;;36.88;17.88;;;;;;;-1.14;78.46;100030.31;6094459;23;20030;-72
2022/12/08 04:33:47;;;;;;;36.88;19.05;;;;;;;-1.12;78.46;100029.41;6094128;23;20026;-71
2022/12/08 04:36:14;;;;;;;33.45;18.98;;;;;;;-1.23;78.54;100033.59;6093651;23;20105;-71
2022/12/08 04:38:40;;;;;;;34.92;18.40;;;;;;;-1.15;78.36;100033.06;6092355;23;20028;-71
2022/12/08 04:41:06;;;;;;;34.25;18.70;;;;;;;-1.11;77.66;100038.97;6092834;23;20019;-70
2022/12/08 04:43:34;;;;;;;32.17;18.80;;;;;;;-0.99;77.79;100040.78;6093346;23;20026;-70
2022/12/08 04:46:00;;;;;;;36.65;18.85;;;;;;;-1.33;78.52;100034.28;6093329;23;20044;-70
2022/12/08 04:48:27;;;;;;;37.08;19.08;;;;;;;-1.15;78.63;100035.72;6094696;23;20519;-70
2022/12/08 04:50:53;;;;;;;36.30;18.73;;;;;;;-0.83;77.34;100025.63;6092718;23;20093;-71
2022/12/08 04:53:20;;;;;;;36.28;19.70;;;;;;;-0.71;76.70;100030.09;6092126;23;20074;-70
2022/12/08 04:55:48;;;;;;;32.63;18.42;;;;;;;-0.82;76.93;100026.47;6092722;23;20030;-71
2022/12/08 04:58:17;;;;;;;31.65;18.35;;;;;;;-1.09;77.72;100019.50;6093696;23;20015;-71
2022/12/08 05:00:44;;;;;;;36.22;19.25;;;;;;;-0.80;77.53;100022.78;6093216;23;20486;-71
2022/12/08 05:03:12;;;;;;;36.35;18.73;;;;;;;-0.71;76.57;100026.56;6093453;23;20028;-71
2022/12/08 05:05:38;;;;;;;37.35;19.65;;;;;;;-0.75;77.04;100023.31;6093080;23;20097;-70
2022/12/08 05:08:05;;;;;;;37.45;19.27;;;;;;;-0.86;77.66;100015.31;6094072;23;20026;-69
2022/12/08 05:10:32;;;;;;;36.38;19.05;;;;;;;-0.81;77.65;100015.00;6092926;23;20033;-70
2022/12/08 05:12:59;;;;;;;36.22;20.27;;;;;;;-0.79;77.29;100011.31;6094656;23;20022;-70
2022/12/08 05:15:26;;;;;;;42.67;20.00;;;;;;;-0.75;77.13;100012.78;6093959;23;20026;-72
2022/12/08 05:17:52;;;;;;;38.28;20.23;;;;;;;-0.58;76.93;100018.69;6093100;23;20057;-71
2022/12/08 05:20:19;;;;;;;35.50;19.65;;;;;;;-0.64;76.81;100021.75;6093260;23;20113;-70
2022/12/08 05:22:45;;;;;;;36.72;19.70;;;;;;;-0.49;76.49;100018.06;6093257;23;20355;-71
2022/12/08 05:25:12;;;;;;;44.95;20.30;;;;;;;-0.52;77.06;100013.00;6093386;23;20022;-70
2022/12/08 05:27:39;;;;;;;37.65;20.35;;;;;;;-0.67;77.04;100005.22;6092408;23;20042;-71
2022/12/08 05:30:06;;;;;;;39.92;20.90;;;;;;;-0.76;77.50;100005.00;6083289;23;20019;-69
2022/12/08 05:32:33;;;;;;;40.45;20.50;;;;;;;-0.54;77.30;100015.72;6092985;23;20026;-69
2022/12/08 05:34:59;;;;;;;39.75;20.27;;;;;;;-0.51;76.44;100009.41;6093928;23;20351;-70
2022/12/08 05:37:25;;;;;;;37.33;20.55;;;;;;;-0.53;76.61;100006.06;6092307;23;20352;-70
2022/12/08 05:39:52;;;;;;;46.22;21.63;;;;;;;-0.73;77.49;100004.78;6092717;23;20030;-70
2022/12/08 05:42:18;;;;;;;48.85;22.25;;;;;;;-0.72;77.42;100003.84;6092956;23;20027;-70
2022/12/08 05:44:50;;;;;;;43.70;21.02;;;;;;;-0.85;78.33;99997.72;6092000;23;20093;-70
2022/12/08 05:47:16;;;;;;;46.47;21.95;;;;;;;-0.81;78.12;100009.75;6093329;23;20022;-71
2022/12/08 05:49:43;;;;;;;46.35;21.85;;;;;;;-0.76;78.46;100003.19;6073725;23;20031;-70
2022/12/08 05:52:10;;;;;;;40.63;22.17;;;;;;;-0.77;78.15;100003.31;6092215;23;20355;-69
2022/12/08 05:54:37;;;;;;;50.40;22.88;;;;;;;-0.67;77.96;100007.84;6091357;23;20030;-68
2022/12/08 05:57:03;;;;;;;44.75;21.60;;;;;;;-0.93;78.72;99995.59;6092856;23;20028;-69
2022/12/08 05:59:30;;;;;;;52.42;23.00;;;;;;;-0.85;78.64;99995.09;6093185;23;20029;-70
2022/12/08 06:01:56;;;;;;;45.50;22.70;;;;;;;-0.79;78.40;100003.41;6092429;23;20029;-69
2022/12/08 06:04:23;;;;;;;51.40;22.50;;;;;;;-0.73;78.61;100004.78;6093042;23;20058;-69
2022/12/08 06:06:49;;;;;;;43.65;21.73;;;;;;;-0.70;78.34;99999.31;6093136;23;20372;-70
2022/12/08 06:09:16;;;;;;;48.10;23.88;;;;;;;-0.66;78.26;100000.78;6067233;23;20041;-69
2022/12/08 06:11:42;;;;;;;46.08;22.92;;;;;;;-0.49;77.86;99997.81;6092659;23;20030;-70
2022/12/08 06:14:10;;;;;;;49.45;23.63;;;;;;;-0.68;77.97;99992.97;6091564;23;20387;-68
2022/12/08 06:16:37;;;;;;;48.65;22.77;;;;;;;-0.63;78.34;99992.66;6092612;23;20018;-70
2022/12/08 06:19:04;;;;;;;47.72;23.17;;;;;;;-0.81;78.50;99993.94;6093367;23;20026;-70
2022/12/08 06:21:30;;;;;;;60.33;23.98;;;;;;;-0.85;78.71;99992.44;6093086;23;20093;-69
2022/12/08 06:23:57;;;;;;;45.80;22.70;;;;;;;-0.86;79.42;99988.97;6092512;23;20477;-70
2022/12/08 06:26:23;;;;;;;52.55;22.38;;;;;;;-0.75;79.10;99990.88;6093786;23;20101;-69
2022/12/08 06:28:50;;;;;;;49.38;23.08;;;;;;;-0.87;79.06;99989.09;6092705;23;20026;-69
2022/12/08 06:31:19;;;;;;;51.83;22.00;;;;;;;-0.85;79.44;99997.72;6090637;23;20022;-69
2022/12/08 06:33:46;;;;;;;52.75;23.60;;;;;;;-0.83;79.52;99990.56;6095088;23;20093;-68
2022/12/08 06:36:15;;;;;;;51.55;23.30;;;;;;;-0.83;79.10;99996.66;6094949;23;20091;-69
2022/12/08 06:38:42;;;;;;;44.25;22.98;;;;;;;-0.88;79.84;99997.91;6093731;23;20030;-69
2022/12/08 06:41:10;;;;;;;47.60;22.38;;;;;;;-0.86;79.03;99996.03;6093824;23;20518;-69
2022/12/08 06:43:37;;;;;;;48.78;24.20;;;;;;;-0.94;79.47;99992.13;6093157;23;20094;-69
2022/12/08 06:46:06;;;;;;;54.35;24.63;;;;;;;-0.84;79.19;99991.53;6093929;23;20089;-70
2022/12/08 06:48:33;;;;;;;44.80;22.20;;;;;;;-0.83;78.77;99980.03;6116284;23;20416;-69
2022/12/08 06:51:14;;;;;;;52.05;23.33;;;;;;;-0.76;78.66;99991.81;6123021;23;20032;-70
2022/12/08 06:53:41;;;;;;;52.90;23.47;;;;;;;-0.75;79.08;100004.03;6119094;23;20028;-69
2022/12/08 06:56:08;;;;;;;48.22;23.40;;;;;;;-0.74;78.70;100011.00;6123469;23;20250;-69
2022/12/08 06:58:34;;;;;;;49.28;23.27;;;;;;;-0.91;79.35;99999.84;6123267;23;20093;-69
2022/12/08 07:01:09;;;;;;;51.15;22.95;;;;;;;-0.82;79.18;100000.13;6121528;23;20022;-69
2022/12/08 07:03:37;;;;;;;52.45;23.25;;;;;;;-0.58;79.19;100006.34;6122510;23;20025;-69
2022/12/08 07:06:05;;;;;;;46.50;22.95;;;;;;;-0.70;79.07;100009.84;6117079;23;20025;-69
2022/12/08 07:08:32;;;;;;;45.47;23.60;;;;;;;-0.72;79.02;100007.31;6123193;23;20030;-69
2022/12/08 07:11:05;;;;;;;48.05;24.33;;;;;;;-0.73;79.23;100017.97;6122754;23;20096;-70
2022/12/08 07:13:31;;;;;;;56.22;23.33;;;;;;;-0.60;79.41;100017.97;6123327;23;20104;-69
2022/12/08 07:15:58;;;;;;;53.10;23.23;;;;;;;-0.67;79.56;100014.91;6123777;23;20022;-70
2022/12/08 07:18:24;;;;;;;48.20;23.02;;;;;;;-0.79;79.67;100021.00;6123234;23;20017;-69
2022/12/08 07:20:51;;;;;;;51.42;23.48;;;;;;;-0.58;79.33;100018.69;6123178;23;20026;-69
2022/12/08 07:23:17;;;;;;;47.60;23.10;;;;;;;-0.61;79.04;100019.72;6106666;23;20026;-74
2022/12/08 07:25:44;;;;;;;57.88;23.60;;;;;;;-0.68;79.37;100015.84;6097728;23;20061;-72
2022/12/08 07:28:16;;;;;;;44.90;23.25;;;;;;;-0.70;79.27;100017.75;6100907;23;20070;-73
2022/12/08 07:30:43;;;;;;;49.15;22.13;;;;;;;-0.68;79.10;100015.84;6120447;23;20029;-73
2022/12/08 07:33:12;;;;;;;48.60;22.63;;;;;;;-0.67;79.01;100014.91;6108193;23;20022;-74
2022/12/08 07:35:39;;;;;;;49.92;23.33;;;;;;;-0.58;79.75;100018.69;6119563;23;20068;-73
2022/12/08 07:38:17;;;;;;;53.10;23.88;;;;;;;-0.68;79.44;100013.19;6095814;23;20343;-73
2022/12/08 07:40:48;;;;;;;51.65;22.30;;;;;;;-0.80;79.90;100001.72;6094657;23;20451;-73
2022/12/08 07:43:15;;;;;;;50.90;22.92;;;;;;;-0.71;79.68;100013.41;6120446;23;20410;-73
2022/12/08 07:45:42;;;;;;;54.25;22.75;;;;;;;-0.68;79.40;100011.41;6106928;23;20546;-73
2022/12/08 07:48:12;;;;;;;47.90;22.50;;;;;;;-0.47;79.13;100006.47;6087069;23;20025;-73
2022/12/08 07:50:40;;;;;;;49.92;24.17;;;;;;;-0.61;79.14;100009.19;6114690;23;20447;-74
2022/12/08 07:53:08;;;;;;;46.10;22.05;;;;;;;-0.56;79.13;100003.63;6121492;23;20048;-73
2022/12/08 07:55:39;;;;;;;46.38;22.23;;;;;;;-0.54;79.46;100010.44;6092146;23;20304;-73
2022/12/08 07:58:09;;;;;;;55.17;21.25;;;;;;;-0.51;79.38;100012.03;6090631;23;20030;-73
2022/12/08 08:00:39;;;;;;;43.55;22.67;;;;;;;-0.68;79.37;100018.47;6091535;23;20050;-73
2022/12/08 08:03:09;;;;;;;49.35;23.10;;;;;;;-0.56;79.17;100017.63;6091507;23;20033;-73
2022/12/08 08:05:38;;;;;;;43.72;21.50;;;;;;;-0.51;78.84;100012.88;6104467;23;20443;-73
2022/12/08 08:08:10;;;;;;;45.85;20.02;;;;;;;-0.58;79.49;100016.88;6119349;23;20061;-73
2022/12/08 08:10:39;;;;;;;46.92;20.80;;;;;;;-0.50;79.67;100017.22;6114144;23;20069;-73
2022/12/08 08:13:09;;;;;;;45.00;20.17;;;;;;;-0.53;79.70;100020.06;6122551;23;20017;-73
2022/12/08 08:15:36;;;;;;;44.20;21.20;;;;;;;-0.38;78.86;100025.22;6122565;23;20018;-73
2022/12/08 08:18:06;;;;;;;42.17;21.73;;;;;;;-0.38;78.87;100027.84;6120446;23;20047;-73
2022/12/08 08:20:32;;;;;;;43.00;21.73;;;;;;;-0.42;79.14;100032.50;6122344;23;20439;-73
2022/12/08 08:22:59;;;;;;;49.55;21.63;;;;;;;-0.58;79.26;100030.06;6118898;23;20040;-73
2022/12/08 08:25:35;;;;;;;42.67;20.85;;;;;;;-0.45;79.38;100023.00;6119371;23;20068;-73
2022/12/08 08:28:02;;;;;;;46.78;21.73;;;;;;;-0.52;79.22;100024.38;6093047;23;20125;-73
2022/12/08 08:30:31;;;;;;;44.85;21.30;;;;;;;-0.43;79.31;100017.63;6085644;23;20077;-73
2022/12/08 08:33:07;;;;;;;51.00;21.48;;;;;;;-0.55;79.91;100016.69;6090858;23;20026;-73
2022/12/08 08:35:33;;;;;;;44.55;21.42;;;;;;;-0.45;79.48;100016.91;6089034;23;20053;-73
2022/12/08 08:38:00;;;;;;;47.10;22.52;;;;;;;-0.36;79.37;100018.03;6089481;23;20124;-73
2022/12/08 08:40:27;;;;;;;46.92;21.92;;;;;;;-0.34;79.53;100018.78;6090147;23;20078;-73
2022/12/08 08:42:53;;;;;;;51.10;21.70;;;;;;;-0.38;80.06;100014.69;6088872;23;20061;-73
2022/12/08 08:45:20;;;;;;;49.97;21.20;;;;;;;-0.33;78.99;100025.72;6091173;23;20036;-73
2022/12/08 08:47:47;;;;;;;43.40;22.40;;;;;;;-0.14;78.72;100017.38;6093486;23;20049;-73
2022/12/08 08:50:13;;;;;;;42.13;21.73;;;;;;;-0.22;78.50;100023.19;6085013;23;20021;-73
2022/12/08 08:52:40;;;;;;;50.53;20.58;;;;;;;-0.20;78.55;100018.66;6090361;23;20022;-73
2022/12/08 08:55:10;;;;;;;49.00;21.77;;;;;;;0.03;78.12;100020.50;6066568;23;20045;-73
2022/12/08 08:57:36;;;;;;;42.53;20.58;;;;;;;-0.11;78.58;100023.28;6092342;23;20098;-73
2022/12/08 09:00:08;;;;;;;47.28;21.75;;;;;;;-0.33;78.77;100021.31;6079319;23;20022;-73
2022/12/08 09:02:37;;;;;;;47.50;20.85;;;;;;;-0.24;78.80;100017.19;6097768;23;20018;-73
2022/12/08 09:05:05;;;;;;;40.80;20.52;;;;;;;-0.11;79.08;100014.53;6092487;23;20325;-73
2022/12/08 09:07:34;;;;;;;40.55;22.08;;;;;;;-0.29;79.28;100008.78;6063755;23;20019;-73
2022/12/08 09:10:02;;;;;;;45.88;21.10;;;;;;;-0.25;79.70;100010.22;6085848;23;20098;-73
2022/12/08 09:12:29;;;;;;;45.15;22.02;;;;;;;-0.05;78.83;100007.03;6094480;23;20019;-73
2022/12/08 09:14:56;;;;;;;48.40;22.98;;;;;;;0.09;78.66;100013.09;6092652;23;20081;-73
2022/12/08 09:17:26;;;;;;;53.58;23.30;;;;;;;0.13;78.66;100007.50;6092732;23;20029;-73
2022/12/08 09:19:53;;;;;;;40.75;20.85;;;;;;;-0.02;78.33;100001.53;6079212;23;20351;-73
2022/12/08 09:22:29;;;;;;;43.05;22.70;;;;;;;0.12;78.20;99997.03;6077691;23;20022;-73
2022/12/08 09:24:59;;;;;;;42.75;21.77;;;;;;;0.09;78.42;99999.91;6078907;23;20019;-73
2022/12/08 09:27:29;;;;;;;40.38;20.67;;;;;;;0.05;78.31;99997.50;6066909;23;20018;-73
2022/12/08 09:29:58;;;;;;;48.58;21.90;;;;;;;0.37;78.13;100002.25;6092888;23;20037;-73
2022/12/08 09:32:31;;;;;;;47.85;21.65;;;;;;;0.08;78.00;99996.41;6092473;23;20049;-73
2022/12/08 09:34:58;;;;;;;45.60;21.88;;;;;;;0.09;78.12;99998.13;6093784;23;20026;-73
2022/12/08 09:37:25;;;;;;;47.65;22.08;;;;;;;0.15;78.09;99992.38;6080446;23;20022;-73
2022/12/08 09:39:58;;;;;;;39.33;21.02;;;;;;;0.47;77.08;99981.28;6077435;23;20046;-73
2022/12/08 09:43:05;;;;;;;43.85;21.63;;;;;;;0.25;77.42;99987.28;6078505;23;20026;-74
2022/12/08 09:45:40;;;;;;;40.20;21.35;;;;;;;0.26;77.38;99988.97;6089657;23;20026;-73
2022/12/08 09:48:17;;;;;;;46.53;22.63;;;;;;;0.27;77.75;99985.41;6093366;23;20030;-73
2022/12/08 09:50:52;;;;;;;42.70;20.88;;;;;;;0.18;77.55;99980.78;6106017;23;20058;-73
2022/12/08 09:53:25;;;;;;;43.97;21.60;;;;;;;0.32;77.73;99985.88;6097729;23;20098;-73
2022/12/08 09:56:04;;;;;;;;;;;;;;;0.36;77.50;99982.06;6120903;23;20018;-73
2022/12/08 09:58:51;;;;;;;42.70;21.02;;;;;;;0.61;77.12;99978.47;6123338;23;19940;-73
2022/12/08 10:01:21;;;;;;;43.13;21.23;;;;;;;0.48;77.14;99970.63;6122024;23;20022;-73
2022/12/08 10:03:54;;;;;;;38.00;20.45;;;;;;;0.32;77.40;99972.69;6120122;23;20068;-73
2022/12/08 10:06:46;;;;;;;43.85;20.35;;;;;;;0.45;77.30;99970.84;6109369;23;20335;-73
2022/12/08 10:09:22;;;;;;;46.13;21.40;;;;;;;0.71;76.65;99973.31;6069520;23;20458;-73
2022/12/08 10:12:14;;;;;;;39.97;20.55;;;;;;;0.56;76.46;99979.75;6070640;23;20416;-73
2022/12/08 10:15:20;;;;;;;39.78;18.98;;;;;;;0.66;76.33;99976.31;6056749;23;20097;-73
2022/12/08 10:17:50;;;;;;;42.13;20.15;;;;;;;0.41;77.04;99971.19;6084062;23;20030;-73
2022/12/08 10:20:28;;;;;;;34.88;19.60;;;;;;;0.74;76.72;99978.38;6095401;23;20403;-73
2022/12/08 10:23:33;;;;;;;39.60;20.08;;;;;;;0.66;76.77;99972.84;6100102;23;20391;-74
2022/12/08 10:26:18;;;;;;;42.67;19.70;;;;;;;0.57;77.29;99970.88;6094034;23;20030;-74
2022/12/08 10:28:52;;;;;;;38.97;19.38;;;;;;;0.71;76.88;99968.03;6093160;23;20502;-73
2022/12/08 10:31:26;;;;;;;45.38;21.52;;;;;;;0.59;77.14;99964.53;6102274;23;20097;-73
2022/12/08 10:34:12;;;;;;;39.67;20.05;;;;;;;0.62;77.33;99963.47;6095190;23;20056;-73
2022/12/08 10:36:57;;;;;;;44.95;19.20;;;;;;;0.63;77.51;99954.59;6094912;23;20026;-73
2022/12/08 10:39:34;;;;;;;35.40;18.73;;;;;;;0.48;77.44;99954.78;6120673;23;20041;-73
2022/12/08 10:42:06;;;;;;;38.03;19.23;;;;;;;0.56;77.02;99956.00;6124701;23;20032;-73
2022/12/08 10:44:48;;;;;;;31.73;18.60;;;;;;;0.66;77.43;99954.34;6123558;23;20354;-73
2022/12/08 10:47:34;;;;;;;36.10;20.08;;;;;;;0.59;77.55;99955.78;6093340;23;20023;-74
2022/12/08 10:50:06;;;;;;;34.78;19.33;;;;;;;0.63;77.00;99960.69;6094267;23;20243;-73
2022/12/08 10:52:37;;;;;;;;;;;;;;;0.42;78.21;99957.03;6079136;23;20502;-73
2022/12/08 10:55:14;;;;;;;34.67;17.75;;;;;;;0.44;77.71;99947.22;6093551;23;19923;-74
2022/12/08 10:57:43;;;;;;;35.75;16.80;;;;;;;0.65;77.61;99947.41;6095484;23;20351;-73
2022/12/08 11:00:15;;;;;;;38.40;18.17;;;;;;;0.47;77.82;99947.00;6093700;23;20057;-74
2022/12/08 11:02:58;;;;;;;28.35;17.02;;;;;;;0.62;77.50;99942.34;6095246;23;20026;-73
2022/12/08 11:05:33;;;;;;;26.88;15.30;;;;;;;0.53;77.59;99938.59;6113146;23;20022;-73
2022/12/08 11:08:01;;;;;;;32.22;15.63;;;;;;;0.66;77.15;99944.63;6123341;23;20451;-73
2022/12/08 11:11:01;;;;;;;32.88;16.50;;;;;;;0.48;77.24;99935.47;6124215;23;20367;-73
2022/12/08 11:13:42;;;;;;;29.27;16.23;;;;;;;0.61;76.92;99928.31;6123785;23;20018;-73
2022/12/08 11:16:13;;;;;;;35.00;15.38;;;;;;;0.45;77.65;99936.53;6124243;23;20037;-73
2022/12/08 11:18:43;;;;;;;31.75;16.08;;;;;;;0.63;77.13;99933.47;6122296;23;20026;-73
2022/12/08 11:21:16;;;;;;;28.60;16.52;;;;;;;0.74;76.84;99930.84;6124071;23;20351;-73
2022/12/08 11:23:50;;;;;;;27.98;16.63;;;;;;;0.84;77.27;99923.06;6122037;23;20076;-74
2022/12/08 11:26:35;;;;;;;35.05;15.80;;;;;;;0.77;76.98;99925.34;6123905;23;20032;-73
2022/12/08 11:29:02;;;;;;;29.75;15.73;;;;;;;0.85;76.44;99922.97;6094543;23;20057;-73
2022/12/08 11:31:39;;;;;;;35.97;17.95;;;;;;;0.79;77.16;99914.69;6093477;23;20046;-73
2022/12/08 11:34:18;;;;;;;32.83;16.98;;;;;;;0.85;76.96;99920.34;6094696;23;20155;-73
2022/12/08 11:36:53;;;;;;;27.98;16.35;;;;;;;0.67;77.03;99919.91;6093868;23;20049;-74
2022/12/08 11:39:21;;;;;;;37.75;16.65;;;;;;;0.48;77.78;99919.63;6123345;23;20094;-73
2022/12/08 11:41:57;;;;;;;32.83;17.60;;;;;;;0.51;78.13;99919.41;6110199;23;20029;-74